Time;durP1;ratioP1;P1;durP2;ratioP2;P2;SDS_P1;SDS_P2;PMS_P1;PMS_P2;Temp;Humidity;BMP_temperature;BMP_pressure;BME280_temperature;BME280_humidity;BME280_pressure;Samples;Min_cycle;Max_cycle;Signal;HPM_P1;HPM_P2
2023/02/05 00:00:40;;;;;;;9.65;3.53;;;2.00;99.90;;;;;;5068676;28;20208;-69
2023/02/05 00:03:06;;;;;;;5.93;2.40;;;2.10;99.90;;;;;;5069026;28;20204;-70
2023/02/05 00:05:34;;;;;;;3.08;2.75;;;2.10;99.90;;;;;;5069002;28;20228;-70
2023/02/05 00:08:01;;;;;;;4.95;1.98;;;2.10;99.90;;;;;;5068556;28;20212;-70
2023/02/05 00:10:28;;;;;;;3.67;1.85;;;2.10;99.90;;;;;;5068314;28;20254;-70
2023/02/05 00:12:55;;;;;;;2.35;2.15;;;2.10;99.90;;;;;;5068811;28;20211;-69
2023/02/05 00:15:21;;;;;;;9.15;2.50;;;2.10;99.90;;;;;;5068934;28;20211;-69
2023/02/05 00:17:48;;;;;;;5.25;2.33;;;2.10;99.90;;;;;;5068526;28;20209;-70
2023/02/05 00:20:15;;;;;;;2.63;2.42;;;2.10;99.90;;;;;;5068143;28;20224;-69
2023/02/05 00:22:43;;;;;;;2.95;2.45;;;2.10;99.90;;;;;;5068707;28;20211;-69
2023/02/05 00:25:09;;;;;;;6.03;2.30;;;2.10;99.90;;;;;;5068994;28;20715;-69
2023/02/05 00:27:36;;;;;;;3.78;2.40;;;2.10;99.90;;;;;;5068851;28;20478;-69
2023/02/05 00:30:03;;;;;;;5.30;2.83;;;2.20;99.90;;;;;;5067977;28;20205;-70
2023/02/05 00:32:30;;;;;;;2.55;2.15;;;2.20;99.90;;;;;;5068606;28;20200;-70
2023/02/05 00:34:56;;;;;;;2.60;2.33;;;2.10;99.90;;;;;;5068127;28;20205;-70
2023/02/05 00:37:23;;;;;;;4.30;2.47;;;2.10;99.90;;;;;;5068706;28;20224;-69
2023/02/05 00:39:51;;;;;;;2.95;2.20;;;2.10;99.90;;;;;;5067378;28;20231;-69
2023/02/05 00:42:18;;;;;;;2.53;1.90;;;2.10;99.90;;;;;;5068350;28;20280;-69
2023/02/05 00:44:44;;;;;;;3.70;2.42;;;2.00;99.90;;;;;;5067887;28;20208;-69
2023/02/05 00:47:11;;;;;;;2.20;1.98;;;2.00;99.90;;;;;;5068451;28;20231;-70
2023/02/05 00:49:38;;;;;;;4.57;2.15;;;2.00;99.90;;;;;;5067141;28;20203;-69
2023/02/05 00:52:05;;;;;;;4.25;1.75;;;2.00;99.90;;;;;;5068344;28;20908;-70
2023/02/05 00:54:32;;;;;;;2.63;2.00;;;2.00;99.90;;;;;;5068167;28;20216;-70
2023/02/05 00:57:00;;;;;;;5.15;2.35;;;2.00;99.90;;;;;;5067589;28;20231;-69
2023/02/05 00:59:26;;;;;;;1.95;1.77;;;2.00;99.90;;;;;;5067565;28;20322;-69
2023/02/05 01:01:53;;;;;;;5.78;2.92;;;2.10;99.90;;;;;;5067614;28;20204;-70
2023/02/05 01:04:20;;;;;;;3.38;2.05;;;2.10;99.90;;;;;;5068044;28;20656;-69
2023/02/05 01:06:46;;;;;;;3.85;2.00;;;2.10;99.90;;;;;;5067465;28;20888;-70
2023/02/05 01:09:13;;;;;;;4.57;2.28;;;2.10;99.90;;;;;;5067588;28;20200;-69
2023/02/05 01:11:40;;;;;;;2.17;1.98;;;2.20;99.90;;;;;;5067131;28;20208;-70
2023/02/05 01:14:08;;;;;;;5.30;2.20;;;2.20;99.90;;;;;;5067502;28;20208;-70
2023/02/05 01:16:35;;;;;;;5.90;2.97;;;2.20;99.90;;;;;;5068217;28;20228;-70
2023/02/05 01:19:01;;;;;;;3.80;2.38;;;2.20;99.90;;;;;;5066547;28;20228;-69
2023/02/05 01:21:28;;;;;;;3.67;2.72;;;2.20;99.90;;;;;;5067600;28;20212;-70
2023/02/05 01:23:56;;;;;;;2.10;1.60;;;2.10;99.90;;;;;;5067584;28;20210;-69
2023/02/05 01:26:23;;;;;;;3.00;1.75;;;2.00;99.90;;;;;;5066451;28;20221;-70
2023/02/05 01:28:49;;;;;;;2.28;2.00;;;2.10;99.90;;;;;;5067981;28;20629;-70
2023/02/05 01:31:19;;;;;;;2.50;1.95;;;2.10;99.90;;;;;;5068277;28;20211;-70
2023/02/05 01:33:46;;;;;;;5.28;2.45;;;2.10;99.90;;;;;;5068463;28;20295;-70
2023/02/05 01:36:12;;;;;;;6.07;2.00;;;2.10;99.90;;;;;;5068276;28;20228;-70
2023/02/05 01:38:39;;;;;;;3.10;2.58;;;2.00;99.90;;;;;;5067672;28;20201;-70
2023/02/05 01:41:08;;;;;;;3.40;2.55;;;2.00;99.90;;;;;;5068365;28;20209;-70
2023/02/05 01:43:34;;;;;;;3.45;2.20;;;2.00;99.90;;;;;;5068948;28;20208;-69
2023/02/05 01:46:13;;;;;;;4.15;2.80;;;1.90;99.90;;;;;;5067565;28;20800;-69
2023/02/05 01:48:46;;;;;;;5.22;3.30;;;2.00;99.90;;;;;;5070261;28;20223;-69
2023/02/05 01:51:15;;;;;;;2.50;2.30;;;2.00;99.90;;;;;;5071327;28;20200;-69
2023/02/05 01:53:43;;;;;;;2.38;1.98;;;2.00;99.90;;;;;;5070981;28;20207;-69
2023/02/05 01:56:14;;;;;;;3.55;2.67;;;2.00;99.90;;;;;;5071110;28;20232;-69
2023/02/05 01:58:46;;;;;;;5.65;2.45;;;2.00;99.90;;;;;;5070489;28;20686;-69
2023/02/05 02:01:12;;;;;;;3.95;2.35;;;1.90;99.90;;;;;;5070129;28;20196;-69
2023/02/05 02:03:40;;;;;;;4.72;2.60;;;1.90;99.90;;;;;;5070844;28;20200;-69
2023/02/05 02:06:08;;;;;;;4.90;2.80;;;1.80;99.90;;;;;;5071064;28;20231;-69
2023/02/05 02:08:35;;;;;;;6.28;3.05;;;1.80;99.90;;;;;;5070513;28;20204;-69
2023/02/05 02:11:04;;;;;;;5.80;2.60;;;1.80;99.90;;;;;;5070751;28;20204;-69
2023/02/05 02:13:32;;;;;;;2.50;2.30;;;1.80;99.90;;;;;;5070889;28;20599;-69
2023/02/05 02:15:59;;;;;;;2.38;2.17;;;1.80;99.90;;;;;;5070243;28;20762;-69
2023/02/05 02:18:27;;;;;;;3.53;2.72;;;1.80;99.90;;;;;;5073449;28;20199;-68
2023/02/05 02:21:17;;;;;;;4.60;2.30;;;1.80;99.90;;;;;;5090541;28;20721;-68
2023/02/05 02:24:02;;;;;;;4.40;2.55;;;1.80;99.90;;;;;;5078308;28;20196;-68
2023/02/05 02:26:48;;;;;;;2.35;2.15;;;1.80;99.90;;;;;;5090744;28;20714;-68
2023/02/05 02:29:22;;;;;;;5.50;2.95;;;1.80;99.90;;;;;;5090450;28;20192;-68
2023/02/05 02:31:55;;;;;;;3.28;2.55;;;1.80;99.90;;;;;;5090514;28;20198;-70
2023/02/05 02:34:31;;;;;;;3.92;2.42;;;1.80;99.90;;;;;;5090918;28;20207;-70
2023/02/05 02:37:03;;;;;;;5.13;2.95;;;1.80;99.90;;;;;;5090575;28;20960;-71
2023/02/05 02:39:33;;;;;;;3.67;2.47;;;1.70;99.90;;;;;;5090205;28;20621;-70
2023/02/05 02:42:05;;;;;;;3.08;2.47;;;1.70;99.90;;;;;;5090463;28;20199;-71
2023/02/05 02:44:37;;;;;;;4.00;2.70;;;1.70;99.90;;;;;;5090559;28;20701;-71
2023/02/05 02:47:10;;;;;;;3.97;2.60;;;1.70;99.90;;;;;;5090513;28;20230;-70
2023/02/05 02:49:41;;;;;;;5.40;3.38;;;1.70;99.90;;;;;;5090135;28;20203;-70
2023/02/05 02:52:11;;;;;;;8.43;3.25;;;1.80;99.90;;;;;;5090521;28;20206;-70
2023/02/05 02:54:41;;;;;;;3.75;2.92;;;1.80;99.90;;;;;;5090695;28;20224;-71
2023/02/05 02:57:10;;;;;;;7.65;3.58;;;1.80;99.90;;;;;;5090496;28;20215;-71
2023/02/05 02:59:40;;;;;;;3.35;2.72;;;1.80;99.90;;;;;;5089838;28;20215;-71
2023/02/05 03:02:11;;;;;;;3.72;3.05;;;1.80;99.90;;;;;;5090638;28;20310;-71
2023/02/05 03:04:41;;;;;;;3.40;2.60;;;1.80;99.90;;;;;;5090558;28;20223;-71
2023/02/05 03:07:13;;;;;;;3.03;2.30;;;1.80;99.90;;;;;;5090281;28;20224;-71
2023/02/05 03:09:46;;;;;;;3.70;3.20;;;1.70;99.90;;;;;;5089978;28;20200;-71
2023/02/05 03:12:15;;;;;;;2.83;2.50;;;1.70;99.90;;;;;;5092882;28;20214;-69
2023/02/05 03:14:43;;;;;;;8.05;2.50;;;1.70;99.90;;;;;;5094371;28;20199;-69
2023/02/05 03:17:17;;;;;;;4.15;3.00;;;1.70;99.90;;;;;;5094200;28;20219;-69
2023/02/05 03:19:44;;;;;;;4.32;3.83;;;1.70;99.90;;;;;;5093644;28;20212;-69
2023/02/05 03:22:10;;;;;;;4.90;3.30;;;1.70;99.90;;;;;;5094143;28;20219;-69
2023/02/05 03:24:38;;;;;;;7.05;3.78;;;1.70;99.90;;;;;;5094312;28;20211;-69
2023/02/05 03:27:05;;;;;;;8.20;3.30;;;1.60;99.90;;;;;;5094189;28;20714;-69
2023/02/05 03:29:34;;;;;;;5.18;3.08;;;1.60;99.90;;;;;;5093600;28;20196;-69
2023/02/05 03:32:14;;;;;;;7.15;4.10;;;1.60;99.90;;;;;;5093924;28;20199;-69
2023/02/05 03:34:51;;;;;;;3.60;3.15;;;1.60;99.90;;;;;;5093884;28;20199;-69
2023/02/05 03:37:25;;;;;;;7.93;4.28;;;1.70;99.90;;;;;;5094148;28;20573;-68
2023/02/05 03:40:03;;;;;;;4.80;3.58;;;1.60;99.90;;;;;;5093203;28;20226;-69
2023/02/05 03:42:36;;;;;;;3.83;3.03;;;1.70;99.90;;;;;;5093942;28;20200;-69
2023/02/05 03:45:20;;;;;;;10.30;3.60;;;1.70;99.90;;;;;;5093857;28;20204;-71
2023/02/05 03:48:11;;;;;;;5.88;3.40;;;1.70;99.90;;;;;;5093710;28;20204;-69
2023/02/05 03:50:41;;;;;;;5.72;3.25;;;1.70;99.90;;;;;;5090888;28;20936;-69
2023/02/05 03:53:15;;;;;;;4.57;3.45;;;1.70;99.90;;;;;;5093610;28;20207;-69
2023/02/05 03:55:47;;;;;;;5.80;4.22;;;1.70;99.90;;;;;;5093521;28;20219;-69
2023/02/05 03:58:19;;;;;;;5.35;3.42;;;1.70;99.90;;;;;;5093440;28;20215;-69
2023/02/05 04:00:46;;;;;;;4.47;3.15;;;1.60;99.90;;;;;;5093492;28;20220;-69
2023/02/05 04:03:15;;;;;;;4.78;3.38;;;1.60;99.90;;;;;;5093659;28;20236;-69
2023/02/05 04:05:42;;;;;;;5.15;3.40;;;1.60;99.90;;;;;;5093400;28;20220;-69
2023/02/05 04:08:08;;;;;;;10.57;3.67;;;1.60;99.90;;;;;;5093349;28;20569;-69
2023/02/05 04:10:35;;;;;;;5.82;3.33;;;1.50;99.90;;;;;;5093211;28;20200;-69
2023/02/05 04:13:02;;;;;;;6.38;3.95;;;1.50;99.90;;;;;;5093104;28;20204;-69
2023/02/05 04:15:28;;;;;;;5.15;3.03;;;1.50;99.90;;;;;;5093212;28;20224;-69
2023/02/05 04:17:56;;;;;;;5.15;3.50;;;1.50;99.90;;;;;;5093270;28;20196;-69
2023/02/05 04:20:24;;;;;;;5.28;3.65;;;1.40;99.90;;;;;;5092496;28;20316;-70
2023/02/05 04:22:51;;;;;;;7.60;3.63;;;1.30;99.90;;;;;;5092154;28;20215;-68
2023/02/05 04:25:19;;;;;;;9.90;3.92;;;1.30;99.90;;;;;;5093139;28;20195;-68
2023/02/05 04:27:46;;;;;;;9.05;3.72;;;1.30;99.90;;;;;;5092850;28;20253;-69
2023/02/05 04:30:13;;;;;;;7.15;3.70;;;1.20;99.90;;;;;;5092507;28;20207;-68
2023/02/05 04:32:40;;;;;;;7.97;3.40;;;1.10;99.90;;;;;;5093012;28;20214;-68
2023/02/05 04:35:07;;;;;;;6.13;3.78;;;1.10;99.90;;;;;;5092817;28;20200;-68
2023/02/05 04:37:35;;;;;;;5.57;4.00;;;1.10;99.90;;;;;;5092939;28;20202;-69
2023/02/05 04:40:01;;;;;;;5.63;3.50;;;1.00;99.90;;;;;;5092071;28;20568;-68
2023/02/05 04:42:28;;;;;;;6.85;4.40;;;1.00;99.90;;;;;;5092716;28;20200;-68
2023/02/05 04:44:55;;;;;;;6.72;3.95;;;0.90;99.90;;;;;;5092563;28;20206;-69
2023/02/05 04:47:21;;;;;;;9.60;4.63;;;0.80;99.90;;;;;;5092606;28;20824;-68
2023/02/05 04:49:48;;;;;;;6.30;4.00;;;0.70;99.90;;;;;;5091974;28;20686;-69
2023/02/05 04:52:15;;;;;;;4.65;3.95;;;0.70;99.90;;;;;;5092461;28;20659;-69
2023/02/05 04:54:43;;;;;;;8.20;4.70;;;0.60;99.90;;;;;;5092427;28;20210;-69
2023/02/05 04:57:10;;;;;;;6.30;4.03;;;0.60;99.90;;;;;;5092345;28;20220;-69
2023/02/05 04:59:36;;;;;;;6.65;3.78;;;0.50;99.90;;;;;;5091778;28;20211;-69
2023/02/05 05:02:03;;;;;;;6.90;4.32;;;0.50;99.90;;;;;;5092163;28;20211;-69
2023/02/05 05:04:30;;;;;;;7.60;3.97;;;0.50;99.90;;;;;;5092423;28;20200;-69
2023/02/05 05:06:56;;;;;;;3.53;3.22;;;0.40;99.90;;;;;;5092104;28;20223;-69
2023/02/05 05:09:24;;;;;;;6.75;3.55;;;0.40;99.90;;;;;;5091627;28;20211;-69
2023/02/05 05:11:52;;;;;;;8.27;3.40;;;0.40;99.90;;;;;;5092013;28;20195;-69
2023/02/05 05:14:19;;;;;;;7.25;4.53;;;0.40;99.90;;;;;;5092217;28;20204;-69
2023/02/05 05:16:46;;;;;;;4.70;3.45;;;0.30;99.90;;;;;;5091887;28;20219;-69
2023/02/05 05:19:13;;;;;;;6.65;3.17;;;0.30;99.90;;;;;;5091632;28;20203;-69
2023/02/05 05:21:39;;;;;;;3.85;3.42;;;0.30;99.90;;;;;;5091766;28;20247;-69
2023/02/05 05:24:06;;;;;;;6.35;3.75;;;0.40;99.90;;;;;;5091925;28;20582;-69
2023/02/05 05:26:33;;;;;;;7.97;3.50;;;0.40;99.90;;;;;;5078925;28;20247;-69
2023/02/05 05:29:01;;;;;;;4.07;3.65;;;0.50;99.90;;;;;;5070890;28;20208;-69
2023/02/05 05:31:28;;;;;;;4.20;2.88;;;0.50;99.90;;;;;;5071557;28;20204;-69
2023/02/05 05:33:55;;;;;;;6.13;3.53;;;0.50;99.90;;;;;;5071425;28;20201;-69
2023/02/05 05:36:21;;;;;;;5.35;3.55;;;0.60;99.90;;;;;;5071573;28;20224;-69
2023/02/05 05:38:48;;;;;;;5.40;2.85;;;0.60;99.90;;;;;;5070758;28;20203;-69
2023/02/05 05:44:06;;;;;;;3.45;2.80;;;0.70;99.90;;;;;;5071193;28;20198;-70
2023/02/05 05:46:32;;;;;;;4.05;3.10;;;0.70;99.90;;;;;;5071330;28;20220;-69
2023/02/05 05:49:01;;;;;;;7.22;3.60;;;0.70;99.90;;;;;;5070512;28;20216;-69
2023/02/05 05:51:29;;;;;;;6.78;3.15;;;0.80;99.90;;;;;;5071186;28;20197;-69
2023/02/05 05:53:56;;;;;;;8.57;3.33;;;0.80;99.90;;;;;;5070959;28;20204;-69
2023/02/05 05:56:23;;;;;;;7.68;3.10;;;0.80;99.90;;;;;;5071044;28;20220;-69
2023/02/05 05:58:50;;;;;;;4.20;3.35;;;0.90;99.90;;;;;;5070449;28;20232;-69
2023/02/05 06:01:21;;;;;;;7.93;3.33;;;0.90;99.90;;;;;;5071065;28;20220;-69
2023/02/05 06:03:48;;;;;;;8.70;3.80;;;0.90;99.90;;;;;;5070856;28;20270;-69
2023/02/05 06:06:15;;;;;;;5.70;2.78;;;0.90;99.90;;;;;;5070981;28;20232;-69
2023/02/05 06:08:42;;;;;;;8.10;4.00;;;0.90;99.90;;;;;;5070255;28;20208;-69
2023/02/05 06:11:08;;;;;;;3.50;2.67;;;0.90;99.90;;;;;;5070825;28;20204;-69
2023/02/05 06:13:35;;;;;;;5.07;3.40;;;0.80;99.90;;;;;;5070733;28;20205;-69
2023/02/05 06:16:02;;;;;;;7.28;3.17;;;0.80;99.90;;;;;;5070559;28;20220;-69
2023/02/05 06:18:30;;;;;;;4.47;2.70;;;0.80;99.90;;;;;;5070227;28;20690;-70
2023/02/05 06:20:57;;;;;;;3.83;3.42;;;0.80;99.90;;;;;;5070389;28;20220;-69
2023/02/05 06:23:24;;;;;;;6.63;4.25;;;0.90;99.90;;;;;;5070674;28;20209;-69
2023/02/05 06:25:51;;;;;;;5.20;3.40;;;0.90;99.90;;;;;;5070567;28;20235;-69
2023/02/05 06:28:18;;;;;;;6.70;3.97;;;0.90;99.90;;;;;;5070201;28;20207;-70
2023/02/05 06:30:45;;;;;;;9.13;3.85;;;0.90;99.90;;;;;;5070457;28;20200;-69
2023/02/05 06:33:12;;;;;;;3.60;3.15;;;0.90;99.90;;;;;;5070782;28;20232;-69
2023/02/05 06:35:41;;;;;;;5.05;3.20;;;0.90;99.90;;;;;;5070472;28;20353;-69
2023/02/05 06:38:08;;;;;;;6.10;4.50;;;1.00;99.90;;;;;;5070466;28;20212;-70
2023/02/05 06:40:35;;;;;;;3.30;3.00;;;1.00;99.90;;;;;;5070296;28;20220;-69
2023/02/05 06:43:01;;;;;;;5.28;3.15;;;1.00;99.90;;;;;;5070383;28;20201;-70
2023/02/05 06:45:28;;;;;;;4.80;3.72;;;0.90;99.90;;;;;;5070217;28;20232;-70
2023/02/05 06:47:56;;;;;;;5.60;3.50;;;0.90;99.90;;;;;;5070053;28;20667;-70
2023/02/05 06:50:23;;;;;;;5.03;3.33;;;1.00;99.90;;;;;;5069979;28;20211;-69
2023/02/05 06:52:51;;;;;;;3.50;3.20;;;1.00;99.90;;;;;;5070237;28;20200;-69
2023/02/05 06:55:18;;;;;;;8.68;4.20;;;1.10;99.90;;;;;;5070308;28;20201;-69
2023/02/05 06:57:45;;;;;;;5.22;2.97;;;1.10;99.90;;;;;;5070205;28;20211;-69
2023/02/05 07:00:13;;;;;;;3.08;2.78;;;1.10;99.90;;;;;;5069803;28;20227;-70
2023/02/05 07:02:39;;;;;;;4.93;2.85;;;1.20;99.90;;;;;;5070416;28;20200;-69
2023/02/05 07:05:07;;;;;;;6.20;3.83;;;1.10;99.90;;;;;;5069948;28;20797;-70
2023/02/05 07:07:34;;;;;;;5.32;3.45;;;1.20;99.90;;;;;;5069830;28;20733;-69
2023/02/05 07:10:03;;;;;;;5.25;3.70;;;1.20;99.90;;;;;;5067750;28;20208;-70
2023/02/05 07:12:30;;;;;;;6.57;4.18;;;1.30;99.90;;;;;;5068647;28;20202;-69
2023/02/05 07:14:56;;;;;;;4.75;3.65;;;1.30;99.90;;;;;;5070066;28;20200;-69
2023/02/05 07:17:23;;;;;;;9.80;4.85;;;1.30;99.90;;;;;;5070024;28;20231;-70
2023/02/05 07:19:50;;;;;;;5.70;2.85;;;1.40;99.90;;;;;;5069308;28;20234;-69
2023/02/05 07:22:17;;;;;;;8.48;3.92;;;1.40;99.90;;;;;;5070024;28;20225;-69
2023/02/05 07:24:44;;;;;;;6.20;3.58;;;1.40;99.90;;;;;;5069722;28;20211;-70
2023/02/05 07:27:12;;;;;;;6.57;3.38;;;1.50;99.90;;;;;;5069785;28;20221;-70
2023/02/05 07:29:39;;;;;;;5.55;3.30;;;1.60;99.90;;;;;;5067632;28;20211;-70
2023/02/05 07:32:06;;;;;;;5.28;3.90;;;1.60;99.90;;;;;;5069583;28;20208;-69
2023/02/05 07:34:32;;;;;;;4.63;3.35;;;1.60;99.90;;;;;;5067830;28;20208;-70
2023/02/05 07:36:59;;;;;;;4.13;2.30;;;1.60;99.90;;;;;;5067266;28;20527;-68
2023/02/05 07:39:27;;;;;;;3.97;3.58;;;1.70;99.90;;;;;;5066692;28;20200;-69
2023/02/05 07:41:58;;;;;;;6.13;3.80;;;1.70;99.90;;;;;;5067226;28;20227;-70
2023/02/05 07:44:26;;;;;;;4.68;4.18;;;1.80;99.90;;;;;;5067971;28;20200;-70
2023/02/05 07:46:53;;;;;;;3.95;3.30;;;1.80;99.90;;;;;;5067302;28;20223;-69
2023/02/05 07:49:20;;;;;;;7.47;3.60;;;1.70;99.90;;;;;;5068290;28;20204;-69
2023/02/05 07:51:47;;;;;;;4.75;3.00;;;1.80;99.90;;;;;;5069935;28;20576;-69
2023/02/05 07:54:14;;;;;;;3.33;2.60;;;1.80;99.90;;;;;;5069875;28;20200;-70
2023/02/05 07:56:42;;;;;;;4.78;3.22;;;1.80;99.90;;;;;;5069559;28;20243;-70
2023/02/05 07:59:09;;;;;;;6.40;3.08;;;1.90;99.90;;;;;;5071390;28;20200;-69
2023/02/05 08:01:37;;;;;;;5.22;3.08;;;1.90;99.90;;;;;;5073113;28;20537;-70
2023/02/05 08:04:04;;;;;;;4.40;3.20;;;1.90;99.90;;;;;;5073188;28;20671;-70
2023/02/05 08:06:32;;;;;;;7.78;3.40;;;2.00;99.90;;;;;;5073042;28;20223;-69
2023/02/05 08:08:58;;;;;;;4.88;2.85;;;2.00;99.90;;;;;;5072451;28;20200;-71
2023/02/05 08:11:25;;;;;;;3.35;2.70;;;2.10;99.90;;;;;;5073253;28;20635;-69
2023/02/05 08:13:52;;;;;;;4.65;3.83;;;2.10;99.90;;;;;;5072846;28;20204;-70
2023/02/05 08:16:18;;;;;;;8.73;4.07;;;2.20;99.90;;;;;;5073146;28;20223;-70
2023/02/05 08:18:50;;;;;;;5.82;3.88;;;2.20;99.90;;;;;;5072212;28;20209;-71
2023/02/05 08:21:17;;;;;;;8.07;3.30;;;2.30;99.90;;;;;;5072900;28;20571;-70
2023/02/05 08:23:44;;;;;;;4.63;2.90;;;2.30;99.90;;;;;;5072758;28;20210;-70
2023/02/05 08:26:12;;;;;;;3.85;3.25;;;2.40;99.90;;;;;;5072948;28;20584;-70
2023/02/05 08:28:39;;;;;;;4.35;3.50;;;2.40;99.90;;;;;;5072421;28;20197;-70
2023/02/05 08:31:10;;;;;;;5.20;3.33;;;2.40;99.90;;;;;;5072777;28;20196;-69
2023/02/05 08:33:36;;;;;;;6.00;4.30;;;2.40;99.90;;;;;;5072854;28;20200;-70
2023/02/05 08:36:05;;;;;;;3.45;3.15;;;2.40;99.90;;;;;;5072659;28;20717;-70
2023/02/05 08:38:32;;;;;;;4.10;3.50;;;2.50;99.90;;;;;;5072352;28;20204;-70
2023/02/05 08:41:03;;;;;;;5.30;3.20;;;2.50;99.90;;;;;;5072469;28;20327;-71
2023/02/05 08:43:29;;;;;;;5.00;4.22;;;2.50;99.90;;;;;;5072790;28;20196;-70
2023/02/05 08:45:56;;;;;;;5.82;3.88;;;2.60;99.90;;;;;;5072465;28;20224;-70
2023/02/05 08:48:23;;;;;;;4.18;3.33;;;2.60;99.90;;;;;;5071955;28;20201;-71
2023/02/05 08:50:49;;;;;;;5.85;3.70;;;2.60;99.90;;;;;;5072165;28;20207;-71
2023/02/05 08:53:17;;;;;;;4.10;3.53;;;2.70;99.90;;;;;;5072313;28;20208;-70
2023/02/05 08:55:44;;;;;;;5.85;4.03;;;2.80;99.90;;;;;;5068600;28;20223;-70
2023/02/05 08:58:11;;;;;;;4.10;3.50;;;2.80;99.90;;;;;;5070057;28;20200;-70
2023/02/05 09:00:38;;;;;;;5.47;3.97;;;2.90;99.90;;;;;;5071309;28;20208;-70
2023/02/05 09:03:05;;;;;;;4.60;3.90;;;3.00;99.90;;;;;;5069449;28;20221;-70
2023/02/05 09:05:32;;;;;;;8.48;3.58;;;3.00;99.90;;;;;;5078849;28;20212;-70
2023/02/05 09:07:59;;;;;;;9.82;4.38;;;3.10;99.90;;;;;;5089851;28;20864;-69
2023/02/05 09:10:27;;;;;;;5.15;3.00;;;3.10;99.90;;;;;;5088714;28;20211;-70
2023/02/05 09:12:53;;;;;;;7.70;3.75;;;3.10;99.90;;;;;;5090063;28;20199;-70
2023/02/05 09:15:20;;;;;;;7.85;3.30;;;3.10;99.90;;;;;;5089529;28;20250;-70
2023/02/05 09:17:47;;;;;;;7.35;3.83;;;3.20;99.90;;;;;;5088045;28;20208;-70
2023/02/05 09:20:14;;;;;;;3.92;3.50;;;3.20;99.90;;;;;;5083420;28;20291;-70
2023/02/05 09:22:41;;;;;;;5.28;4.43;;;3.20;99.90;;;;;;5076517;28;20596;-70
2023/02/05 09:25:09;;;;;;;6.05;4.07;;;3.20;99.90;;;;;;5089273;28;20204;-70
2023/02/05 09:27:37;;;;;;;5.10;3.58;;;3.20;99.90;;;;;;5089889;28;20257;-71
2023/02/05 09:30:04;;;;;;;9.02;4.03;;;3.30;99.90;;;;;;5089321;28;20195;-71
2023/02/05 09:32:31;;;;;;;6.20;3.20;;;3.30;99.90;;;;;;5090012;28;20208;-71
2023/02/05 09:34:58;;;;;;;8.25;3.60;;;3.30;99.90;;;;;;5089265;28;20316;-70
2023/02/05 09:37:25;;;;;;;4.88;3.10;;;3.30;99.90;;;;;;5089756;28;20310;-71
2023/02/05 09:39:52;;;;;;;7.63;3.40;;;3.20;99.90;;;;;;5088410;28;20211;-71
2023/02/05 09:42:31;;;;;;;3.13;2.80;;;3.30;99.90;;;;;;5089739;28;20220;-70
2023/02/05 09:45:13;;;;;;;6.22;3.22;;;3.20;99.90;;;;;;5089081;28;20207;-70
2023/02/05 09:47:45;;;;;;;3.92;3.45;;;3.20;99.90;;;;;;5086872;28;20251;-70
2023/02/05 09:50:20;;;;;;;9.90;3.28;;;3.10;99.90;;;;;;5078692;28;20196;-70
2023/02/05 09:52:50;;;;;;;4.20;3.38;;;3.10;99.90;;;;;;5088120;28;20203;-70
2023/02/05 09:55:21;;;;;;;3.83;3.03;;;3.00;99.90;;;;;;5083119;28;20201;-70
2023/02/05 09:57:48;;;;;;;7.47;4.20;;;3.10;99.90;;;;;;5068148;28;20211;-70
2023/02/05 10:00:22;;;;;;;5.65;3.90;;;3.00;99.90;;;;;;5067071;28;20224;-69
2023/02/05 10:02:56;;;;;;;6.50;3.80;;;3.10;99.90;;;;;;5068075;28;20232;-69
2023/02/05 10:05:26;;;;;;;4.47;3.33;;;3.10;99.90;;;;;;5066954;28;20226;-69
2023/02/05 10:08:00;;;;;;;8.10;3.65;;;3.10;99.90;;;;;;5068069;28;20204;-69
2023/02/05 10:10:28;;;;;;;5.50;3.47;;;3.00;99.90;;;;;;5067515;28;20219;-69
2023/02/05 10:13:24;;;;;;;7.82;3.63;;;3.00;99.90;;;;;;5067467;28;20208;-69
2023/02/05 10:16:06;;;;;;;4.20;3.55;;;3.10;99.90;;;;;;5062142;28;20212;-69
2023/02/05 10:18:43;;;;;;;6.97;3.75;;;3.10;99.90;;;;;;5066901;28;20208;-70
2023/02/05 10:21:23;;;;;;;5.03;3.58;;;3.10;99.90;;;;;;5065333;28;20746;-70
2023/02/05 10:24:06;;;;;;;4.78;3.40;;;3.20;99.90;;;;;;5078745;28;20594;-70
2023/02/05 10:26:39;;;;;;;7.57;3.30;;;3.30;99.90;;;;;;5077389;28;20565;-70
2023/02/05 10:29:16;;;;;;;5.22;3.03;;;3.30;99.90;;;;;;5068162;28;20219;-70
2023/02/05 10:31:54;;;;;;;6.45;3.38;;;3.40;99.90;;;;;;5077985;28;20192;-70
2023/02/05 10:34:34;;;;;;;3.70;3.00;;;3.40;99.90;;;;;;5069105;28;20208;-70
2023/02/05 10:37:05;;;;;;;3.28;2.70;;;3.50;99.90;;;;;;5084126;28;20223;-70
2023/02/05 10:39:32;;;;;;;7.18;3.10;;;3.50;99.90;;;;;;5088279;28;20204;-70
2023/02/05 10:42:03;;;;;;;8.57;3.97;;;3.50;99.90;;;;;;5087841;28;20211;-70
2023/02/05 10:44:34;;;;;;;6.15;3.13;;;3.50;99.90;;;;;;5089389;28;20203;-70
2023/02/05 10:47:07;;;;;;;4.25;3.25;;;3.50;99.90;;;;;;5087912;28;20218;-70
2023/02/05 10:49:44;;;;;;;8.23;3.40;;;3.50;99.90;;;;;;5088012;28;20211;-69
2023/02/05 10:52:13;;;;;;;3.17;2.53;;;3.50;99.90;;;;;;5088169;28;20199;-70
2023/02/05 10:54:40;;;;;;;6.28;3.20;;;3.60;99.90;;;;;;5088487;28;20222;-71
2023/02/05 10:57:12;;;;;;;5.45;2.80;;;3.60;99.90;;;;;;5088657;28;20212;-70
2023/02/05 10:59:47;;;;;;;7.53;3.03;;;3.70;99.90;;;;;;5088955;28;20203;-70
2023/02/05 11:02:16;;;;;;;6.88;3.78;;;3.80;99.90;;;;;;5088928;28;20215;-70
2023/02/05 11:04:47;;;;;;;5.70;3.10;;;3.80;99.90;;;;;;5088942;28;20206;-70
2023/02/05 11:07:18;;;;;;;5.70;3.33;;;3.90;99.90;;;;;;5088950;28;20226;-70
2023/02/05 11:09:45;;;;;;;5.13;3.05;;;3.90;99.90;;;;;;5088545;28;20253;-70
2023/02/05 11:12:20;;;;;;;4.15;3.15;;;3.90;99.90;;;;;;5088104;28;20196;-70
2023/02/05 11:14:56;;;;;;;4.25;2.72;;;3.90;99.90;;;;;;5089390;28;20206;-71
2023/02/05 11:17:30;;;;;;;5.93;4.00;;;3.90;99.90;;;;;;5088397;28;20230;-70
2023/02/05 11:20:00;;;;;;;5.82;3.10;;;4.00;99.90;;;;;;5088275;28;20200;-70
2023/02/05 11:22:28;;;;;;;13.27;4.03;;;4.00;99.90;;;;;;5071747;28;20220;-70
2023/02/05 11:25:06;;;;;;;5.07;3.35;;;4.00;99.90;;;;;;5077645;28;20587;-71
2023/02/05 11:27:34;;;;;;;4.53;3.00;;;4.00;99.90;;;;;;5088768;28;20220;-70
2023/02/05 11:30:19;;;;;;;3.47;2.85;;;4.00;99.90;;;;;;5088054;28;20192;-70
2023/02/05 11:32:47;;;;;;;5.15;3.05;;;4.00;99.90;;;;;;5090542;28;20203;-71
2023/02/05 11:35:20;;;;;;;6.10;3.80;;;4.10;99.90;;;;;;5091824;28;20211;-70
2023/02/05 11:37:50;;;;;;;4.93;3.08;;;4.20;99.90;;;;;;5092702;28;20208;-70
2023/02/05 11:40:22;;;;;;;5.22;3.50;;;4.20;99.90;;;;;;5087302;28;20200;-70
2023/02/05 11:43:00;;;;;;;7.97;3.70;;;4.20;99.90;;;;;;5072050;28;20228;-70
2023/02/05 11:45:29;;;;;;;4.13;3.33;;;4.30;99.90;;;;;;5071730;28;20680;-70
2023/02/05 11:48:00;;;;;;;5.70;3.58;;;4.30;99.90;;;;;;5072353;28;20215;-70
2023/02/05 11:50:30;;;;;;;10.07;3.38;;;4.30;99.90;;;;;;5071902;28;20235;-70
2023/02/05 11:53:11;;;;;;;5.65;4.10;;;4.30;99.90;;;;;;5071589;28;20200;-70
2023/02/05 11:55:39;;;;;;;5.85;3.20;;;4.30;99.90;;;;;;5071858;28;20220;-70
2023/02/05 11:58:18;;;;;;;6.22;3.85;;;4.20;99.90;;;;;;5072175;28;20213;-70
2023/02/05 12:00:51;;;;;;;5.03;3.05;;;4.10;99.90;;;;;;5072302;28;20233;-70
2023/02/05 12:03:20;;;;;;;4.22;3.03;;;4.20;99.90;;;;;;5072144;28;20224;-70
2023/02/05 12:05:52;;;;;;;10.02;4.03;;;4.30;99.90;;;;;;5071516;28;20216;-71
2023/02/05 12:08:29;;;;;;;3.38;2.85;;;4.30;99.90;;;;;;5071198;28;20203;-70
2023/02/05 12:11:07;;;;;;;6.88;3.53;;;4.40;99.90;;;;;;5072203;28;20690;-70
2023/02/05 12:13:44;;;;;;;7.03;4.10;;;4.40;99.90;;;;;;5071763;28;20200;-70
2023/02/05 12:16:20;;;;;;;5.97;3.60;;;4.40;99.90;;;;;;5072209;28;20227;-70
2023/02/05 12:18:59;;;;;;;4.65;3.17;;;4.40;99.90;;;;;;5071787;28;20234;-70
2023/02/05 12:21:36;;;;;;;4.30;3.08;;;4.40;99.90;;;;;;5072733;28;20294;-71
2023/02/05 12:24:43;;;;;;;5.13;3.60;;;4.30;99.90;;;;;;5071810;28;20238;-71
2023/02/05 12:27:30;;;;;;;5.22;3.85;;;4.30;99.90;;;;;;5073514;28;20220;-70
2023/02/05 12:30:10;;;;;;;6.72;3.90;;;4.40;99.90;;;;;;5068606;28;20291;-70
2023/02/05 12:32:46;;;;;;;4.50;3.80;;;4.40;99.90;;;;;;5072699;28;20197;-70
2023/02/05 12:35:32;;;;;;;4.80;3.30;;;4.30;99.90;;;;;;5072366;28;20203;-70
2023/02/05 12:38:08;;;;;;;6.93;3.90;;;4.20;99.90;;;;;;5071640;28;20458;-70
2023/02/05 12:40:49;;;;;;;4.47;3.72;;;4.20;99.90;;;;;;5072014;28;20200;-70
2023/02/05 12:43:31;;;;;;;6.40;4.20;;;4.30;99.90;;;;;;5071896;28;20385;-68
2023/02/05 12:46:06;;;;;;;9.63;3.72;;;4.30;99.90;;;;;;5071324;28;20730;-69
2023/02/05 12:48:49;;;;;;;4.25;3.55;;;4.40;99.90;;;;;;5068464;28;20689;-69
2023/02/05 12:51:34;;;;;;;5.00;2.90;;;4.40;99.90;;;;;;5075923;28;20200;-69
2023/02/05 12:54:27;;;;;;;4.65;3.88;;;4.40;99.90;;;;;;5090154;28;20596;-70
2023/02/05 12:56:59;;;;;;;5.20;2.80;;;4.50;99.90;;;;;;5091059;28;20220;-69
2023/02/05 12:59:37;;;;;;;3.33;3.03;;;4.40;99.90;;;;;;5090479;28;20230;-69
2023/02/05 13:02:18;;;;;;;10.15;3.42;;;4.50;99.90;;;;;;5090848;28;20211;-69
2023/02/05 13:04:49;;;;;;;6.43;3.03;;;4.40;99.90;;;;;;5091211;28;20230;-69
2023/02/05 13:07:29;;;;;;;3.58;2.33;;;4.50;99.90;;;;;;5090477;28;20228;-70
2023/02/05 13:10:00;;;;;;;3.75;2.90;;;4.50;99.90;;;;;;5090286;28;20218;-69
2023/02/05 13:12:29;;;;;;;2.63;2.42;;;4.50;99.90;;;;;;5090846;28;20585;-69
2023/02/05 13:15:05;;;;;;;2.75;2.45;;;4.50;99.90;;;;;;5090769;28;20211;-70